createdAt,value
2023-10-21T00:00:56.351Z,15.51
2023-10-21T00:03:30.948Z,16.49
2023-10-21T00:06:06.908Z,17.42
2023-10-21T00:08:40.331Z,16.06
2023-10-21T00:11:13.738Z,14.74
2023-10-21T00:13:48.364Z,15.54
2023-10-21T00:16:21.683Z,14.85
2023-10-21T00:18:54.927Z,14.91
2023-10-21T00:21:28.189Z,15.42
2023-10-21T00:24:01.590Z,16.21
2023-10-21T00:26:46.131Z,15.04
2023-10-21T00:29:20.750Z,16.70
2023-10-21T00:31:54.025Z,15.78
2023-10-21T00:34:27.279Z,15.37
2023-10-21T00:37:00.492Z,19.21
2023-10-21T00:39:35.770Z,16.98
2023-10-21T00:42:09.191Z,17.88
2023-10-21T00:44:43.884Z,20.11
2023-10-21T00:47:19.535Z,17.92
2023-10-21T00:49:53.365Z,17.97
2023-10-21T00:52:27.775Z,16.48
2023-10-21T00:55:04.390Z,17.82
2023-10-21T00:57:38.678Z,16.16
2023-10-21T01:00:14.809Z,15.27
2023-10-21T01:02:49.282Z,14.44
2023-10-21T01:05:23.333Z,17.05
2023-10-21T01:08:00.736Z,17.32
2023-10-21T01:10:33.975Z,16.29
2023-10-21T01:13:07.214Z,17.54
2023-10-21T01:15:42.811Z,17.60
2023-10-21T01:18:16.088Z,15.91
2023-10-21T01:20:54.308Z,16.78
2023-10-21T01:23:29.456Z,16.87
2023-10-21T01:26:03.075Z,15.71
2023-10-21T01:28:36.627Z,15.60
2023-10-21T01:31:09.859Z,15.89
2023-10-21T01:33:43.197Z,16.74
2023-10-21T01:36:16.544Z,16.24
2023-10-21T01:38:51.282Z,17.71
2023-10-21T01:41:24.639Z,16.92
2023-10-21T01:43:57.791Z,16.14
2023-10-21T01:46:31.033Z,14.57
2023-10-21T01:49:06.563Z,14.00
2023-10-21T01:51:39.752Z,13.75
2023-10-21T01:54:14.594Z,12.83
2023-10-21T01:56:47.898Z,11.58
2023-10-21T01:59:21.584Z,12.06
2023-10-21T02:01:54.824Z,11.21
2023-10-21T02:04:28.213Z,10.58
2023-10-21T02:07:01.771Z,9.98
2023-10-21T02:09:36.473Z,9.55
2023-10-21T02:12:10.923Z,9.49
2023-10-21T02:14:44.143Z,8.99
2023-10-21T02:17:17.401Z,9.08
2023-10-21T02:19:57.542Z,8.76
2023-10-21T02:22:30.805Z,9.06
2023-10-21T02:25:13.439Z,11.11
2023-10-21T02:27:48.905Z,9.88
2023-10-21T02:30:22.175Z,9.07
2023-10-21T02:32:56.345Z,11.03
2023-10-21T02:35:29.697Z,9.36
2023-10-21T02:38:02.985Z,10.33
2023-10-21T02:40:43.100Z,10.14
2023-10-21T02:43:16.331Z,10.10
2023-10-21T02:45:50.780Z,10.18
2023-10-21T02:48:26.532Z,10.06
2023-10-21T02:51:01.493Z,9.40
2023-10-21T02:53:35.031Z,9.17
2023-10-21T02:56:14.212Z,12.63
2023-10-21T02:58:47.420Z,18.72
2023-10-21T03:01:22.457Z,16.78
2023-10-21T03:03:56.427Z,17.08
2023-10-21T03:06:31.945Z,15.12
2023-10-21T03:09:07.683Z,16.28
2023-10-21T03:11:43.386Z,17.88
2023-10-21T03:14:16.662Z,18.04
2023-10-21T03:16:50.777Z,18.90
2023-10-21T03:19:24.025Z,19.50
2023-10-21T03:21:58.176Z,45.13
2023-10-21T03:24:32.379Z,55.93
2023-10-21T03:27:07.527Z,52.10
2023-10-21T03:29:40.703Z,48.67
2023-10-21T03:32:14.586Z,52.23
2023-10-21T03:34:48.838Z,56.13
2023-10-21T03:37:22.040Z,59.58
2023-10-21T03:39:56.570Z,42.59
2023-10-21T03:42:31.417Z,45.52
2023-10-21T03:45:05.786Z,42.58
2023-10-21T03:47:39.697Z,26.91
2023-10-21T03:50:13.093Z,22.79
2023-10-21T03:52:46.293Z,22.97
2023-10-21T03:55:19.668Z,28.09
2023-10-21T03:57:54.267Z,58.46
2023-10-21T04:00:27.601Z,61.16
2023-10-21T04:03:00.864Z,48.16
2023-10-21T04:05:34.175Z,35.03
2023-10-21T04:08:07.976Z,29.28
2023-10-21T04:10:41.542Z,25.91
2023-10-21T04:13:16.250Z,24.39
2023-10-21T04:15:50.681Z,23.79
2023-10-21T04:18:24.083Z,22.97
2023-10-21T04:20:57.661Z,24.91
2023-10-21T04:23:33.116Z,26.86
2023-10-21T04:26:07.748Z,42.30
2023-10-21T04:28:42.378Z,36.89
2023-10-21T04:31:15.652Z,22.51
2023-10-21T04:33:48.970Z,16.48
2023-10-21T04:36:22.412Z,13.67
2023-10-21T04:38:55.616Z,13.68
2023-10-21T04:41:28.801Z,13.30
2023-10-21T04:44:03.826Z,13.34
2023-10-21T04:46:37.199Z,12.15
2023-10-21T04:49:10.386Z,12.82
2023-10-21T04:51:43.571Z,11.74
2023-10-21T04:54:18.051Z,11.28
2023-10-21T04:56:51.315Z,11.18
2023-10-21T04:59:25.846Z,10.63
2023-10-21T05:01:59.070Z,11.40
2023-10-21T05:04:32.455Z,10.12
2023-10-21T05:07:05.710Z,10.32
2023-10-21T05:09:38.882Z,11.73
2023-10-21T05:12:12.420Z,13.45
2023-10-21T05:14:47.125Z,12.42
2023-10-21T05:17:20.385Z,11.32
2023-10-21T05:19:53.673Z,11.33
2023-10-21T05:22:26.902Z,9.84
2023-10-21T05:25:00.125Z,10.14
2023-10-21T05:27:33.342Z,9.28
2023-10-21T05:30:09.462Z,10.25
2023-10-21T05:32:43.645Z,9.21
2023-10-21T05:35:17.139Z,8.65
2023-10-21T05:37:50.378Z,9.09
2023-10-21T05:40:23.581Z,9.77
2023-10-21T05:42:56.793Z,9.55
2023-10-21T05:45:31.432Z,9.06
2023-10-21T05:48:05.239Z,8.32
2023-10-21T05:50:38.656Z,8.34
2023-10-21T05:53:12.052Z,7.57
2023-10-21T05:55:45.716Z,7.20
2023-10-21T05:58:18.894Z,5.38
2023-10-21T06:00:53.598Z,6.53
2023-10-21T06:03:26.830Z,7.33
2023-10-21T06:06:00.131Z,5.96
2023-10-21T06:08:33.565Z,5.38
2023-10-21T06:11:06.826Z,4.83
2023-10-21T06:13:40.212Z,5.99
2023-10-21T06:16:15.266Z,4.55
2023-10-21T06:18:48.701Z,5.21
2023-10-21T06:21:21.979Z,4.44
2023-10-21T06:23:55.196Z,2.77
2023-10-21T06:26:28.428Z,3.04
2023-10-21T06:29:02.745Z,2.20
2023-10-21T06:31:37.342Z,3.20
2023-10-21T06:34:10.543Z,3.41
2023-10-21T06:36:44.200Z,3.33
2023-10-21T06:39:17.404Z,3.63
2023-10-21T06:41:50.726Z,2.50
2023-10-21T06:44:24.883Z,2.79
2023-10-21T06:46:59.438Z,3.77
2023-10-21T06:49:32.585Z,2.91
2023-10-21T06:52:06.636Z,3.44
2023-10-21T06:54:40.201Z,4.56
2023-10-21T06:57:21.147Z,3.81
2023-10-21T06:59:54.548Z,3.92
2023-10-21T07:02:29.719Z,4.00
2023-10-21T07:05:02.939Z,4.03
2023-10-21T07:07:41.503Z,4.43
2023-10-21T07:10:14.663Z,3.06
2023-10-21T07:12:47.798Z,4.08
2023-10-21T07:15:21.381Z,6.96
2023-10-21T07:17:56.070Z,4.76
2023-10-21T07:20:31.491Z,4.17
2023-10-21T07:23:04.973Z,5.52
2023-10-21T07:25:38.604Z,4.64
2023-10-21T07:28:12.309Z,4.05
2023-10-21T07:30:45.776Z,4.04
2023-10-21T07:33:23.161Z,5.26
2023-10-21T07:35:56.931Z,4.43
2023-10-21T07:38:30.077Z,4.07
2023-10-21T07:41:11.113Z,4.13
2023-10-21T07:43:44.286Z,4.96
2023-10-21T07:46:17.514Z,4.66
2023-10-21T07:48:52.899Z,4.20
2023-10-21T07:51:26.208Z,3.82
2023-10-21T07:53:59.564Z,3.48
2023-10-21T07:56:34.014Z,4.56
2023-10-21T07:59:07.317Z,5.36
2023-10-21T08:01:40.838Z,4.14
2023-10-21T08:04:15.532Z,4.94
2023-10-21T08:06:48.998Z,3.45
2023-10-21T08:09:24.347Z,3.60
2023-10-21T08:11:57.604Z,4.04
2023-10-21T08:14:31.988Z,4.79
2023-10-21T08:17:06.324Z,4.50
2023-10-21T08:19:40.953Z,4.23
2023-10-21T08:22:14.200Z,7.34
2023-10-21T08:24:48.339Z,4.44
2023-10-21T08:27:21.669Z,4.84
2023-10-21T08:29:57.951Z,4.05
2023-10-21T08:32:31.113Z,4.06
2023-10-21T08:35:06.072Z,4.09
2023-10-21T08:37:39.242Z,4.86
2023-10-21T08:40:13.230Z,4.68
2023-10-21T08:45:22.984Z,4.80
2023-10-21T08:47:59.768Z,3.74
2023-10-21T08:50:37.184Z,4.03
2023-10-21T08:53:13.520Z,4.38
2023-10-21T08:55:47.312Z,6.17
2023-10-21T08:58:29.339Z,4.48
2023-10-21T09:01:03.200Z,4.36
2023-10-21T09:03:36.952Z,4.44
2023-10-21T09:06:13.419Z,4.14
2023-10-21T09:08:48.646Z,5.37
2023-10-21T09:11:32.523Z,4.79
2023-10-21T09:14:07.284Z,5.58
2023-10-21T09:16:40.577Z,5.81
2023-10-21T09:19:13.867Z,6.98
2023-10-21T09:21:48.401Z,5.79
2023-10-21T09:24:24.322Z,6.05
2023-10-21T09:26:57.640Z,6.44
2023-10-21T09:29:30.877Z,5.90
2023-10-21T09:32:07.489Z,5.71
2023-10-21T09:34:41.619Z,6.48
2023-10-21T09:37:27.888Z,5.47
2023-10-21T09:40:01.081Z,4.54
2023-10-21T09:42:39.127Z,5.35
2023-10-21T09:45:14.224Z,4.06
2023-10-21T09:47:48.375Z,3.99
2023-10-21T09:50:22.091Z,4.00
2023-10-21T09:53:09.192Z,5.10
2023-10-21T09:55:43.380Z,4.31
2023-10-21T09:58:20.637Z,5.36
2023-10-21T10:00:55.341Z,4.66
2023-10-21T10:03:28.976Z,3.71
2023-10-21T10:06:04.272Z,4.12
2023-10-21T10:08:39.798Z,5.41
2023-10-21T10:11:17.812Z,4.47
2023-10-21T10:13:51.313Z,4.51
2023-10-21T10:16:26.398Z,6.04
2023-10-21T10:18:59.695Z,4.72
2023-10-21T10:21:36.036Z,4.70
2023-10-21T10:24:11.139Z,4.40
2023-10-21T10:26:47.380Z,4.35
2023-10-21T10:29:26.338Z,5.22
2023-10-21T10:32:18.090Z,4.06
2023-10-21T10:34:53.914Z,4.57
2023-10-21T10:37:32.876Z,4.75
2023-10-21T10:40:21.241Z,4.62
2023-10-21T10:42:54.538Z,5.39
2023-10-21T10:45:30.085Z,5.22
2023-10-21T10:48:05.105Z,4.46
2023-10-21T10:50:39.086Z,4.98
2023-10-21T10:53:16.654Z,6.55
2023-10-21T10:55:55.246Z,5.37
2023-10-21T10:58:28.752Z,6.07
2023-10-21T11:01:02.484Z,5.07
2023-10-21T11:03:37.786Z,5.14
2023-10-21T11:06:13.706Z,5.57
2023-10-21T11:08:48.032Z,4.99
2023-10-21T11:11:22.582Z,5.06
2023-10-21T11:13:56.706Z,5.31
2023-10-21T11:16:30.054Z,5.16
2023-10-21T11:19:03.368Z,5.70
2023-10-21T11:21:40.784Z,5.77
2023-10-21T11:24:15.644Z,5.94
2023-10-21T11:26:52.567Z,7.03
2023-10-21T11:29:26.816Z,6.78
2023-10-21T11:32:00.013Z,5.88
2023-10-21T11:34:33.912Z,6.75
2023-10-21T11:37:07.806Z,8.29
2023-10-21T11:39:42.188Z,7.92
2023-10-21T11:42:20.772Z,6.56
2023-10-21T11:44:58.880Z,6.52
2023-10-21T11:47:34.341Z,7.88
2023-10-21T11:50:11.454Z,6.57
2023-10-21T11:52:45.683Z,7.22
2023-10-21T11:55:38.400Z,7.65
2023-10-21T11:58:55.835Z,7.18
2023-10-21T12:02:07.306Z,7.33
2023-10-21T12:04:54.326Z,7.01
2023-10-21T12:07:44.795Z,7.67
2023-10-21T12:10:34.650Z,7.23
2023-10-21T12:13:36.815Z,9.51
2023-10-21T12:16:28.251Z,8.83
2023-10-21T12:19:15.287Z,7.35
2023-10-21T12:22:17.389Z,9.15
2023-10-21T12:25:07.759Z,8.69
2023-10-21T12:27:58.256Z,7.23
2023-10-21T12:30:54.413Z,7.97
2023-10-21T12:33:46.547Z,9.06
2023-10-21T12:36:34.489Z,8.03
2023-10-21T12:39:21.693Z,8.86
2023-10-21T12:41:55.050Z,8.57
2023-10-21T12:44:28.437Z,8.04
2023-10-21T12:47:07.117Z,6.49
2023-10-21T12:49:44.427Z,7.54
2023-10-21T12:52:17.705Z,6.91
2023-10-21T12:54:52.040Z,7.19
2023-10-21T12:57:25.388Z,7.43
2023-10-21T12:59:58.653Z,7.29
2023-10-21T13:02:37.092Z,7.00
2023-10-21T13:05:12.098Z,7.11
2023-10-21T13:07:45.508Z,8.46
2023-10-21T13:10:19.508Z,8.72
2023-10-21T13:12:52.687Z,7.90
2023-10-21T13:15:25.967Z,7.67
2023-10-21T13:17:59.634Z,6.60
2023-10-21T13:20:34.265Z,6.58
2023-10-21T13:23:07.447Z,6.82
2023-10-21T13:25:40.682Z,7.24
2023-10-21T13:28:13.914Z,6.66
2023-10-21T13:30:49.370Z,7.16
2023-10-21T13:33:22.616Z,6.26
2023-10-21T13:35:57.191Z,7.21
2023-10-21T13:38:30.371Z,6.90
2023-10-21T13:41:06.052Z,7.34
2023-10-21T13:43:40.179Z,7.13
2023-10-21T13:46:13.362Z,6.87
2023-10-21T13:48:46.613Z,7.98
2023-10-21T13:51:21.243Z,7.39
2023-10-21T13:53:56.799Z,6.95
2023-10-21T13:56:32.382Z,6.96
2023-10-21T13:59:07.323Z,6.54
2023-10-21T14:01:42.830Z,6.59
2023-10-21T14:04:16.373Z,6.23
2023-10-21T14:06:51.119Z,8.10
2023-10-21T14:09:25.170Z,7.72
2023-10-21T14:11:58.587Z,6.06
2023-10-21T14:14:31.759Z,8.05
2023-10-21T14:17:05.401Z,7.92
2023-10-21T14:19:38.605Z,7.44
2023-10-21T14:22:13.128Z,6.31
2023-10-21T14:24:46.322Z,7.84
2023-10-21T14:27:20.450Z,7.61
2023-10-21T14:30:04.000Z,7.46
2023-10-21T14:32:39.052Z,8.00
2023-10-21T14:35:12.237Z,7.55
2023-10-21T14:37:46.825Z,6.39
2023-10-21T14:40:20.180Z,6.12
2023-10-21T14:42:53.378Z,6.65
2023-10-21T14:45:26.632Z,6.05
2023-10-21T14:48:01.027Z,5.79
2023-10-21T14:50:34.248Z,10.93
2023-10-21T14:53:09.693Z,76.34
2023-10-21T14:55:52.290Z,14.41
2023-10-21T14:58:28.953Z,23.50
2023-10-21T15:01:03.967Z,13.21
2023-10-21T15:03:38.587Z,12.52
2023-10-21T15:06:11.938Z,14.14
2023-10-21T15:08:46.511Z,8.83
2023-10-21T15:11:19.734Z,10.20
2023-10-21T15:13:52.977Z,8.25
2023-10-21T15:16:26.181Z,8.85
2023-10-21T15:18:59.588Z,8.19
2023-10-21T15:21:33.053Z,8.33
2023-10-21T15:24:08.404Z,7.37
2023-10-21T15:26:41.513Z,7.35
2023-10-21T15:29:14.661Z,7.26
2023-10-21T15:31:48.743Z,7.34
2023-10-21T15:34:23.261Z,7.34
2023-10-21T15:36:56.384Z,7.02
2023-10-21T15:39:31.462Z,6.67
2023-10-21T15:42:05.052Z,7.59
2023-10-21T15:44:38.251Z,7.07
2023-10-21T15:47:13.983Z,6.98
2023-10-21T15:49:47.170Z,7.81
2023-10-21T15:52:20.381Z,7.90
2023-10-21T15:54:55.538Z,8.24
2023-10-21T15:57:29.398Z,8.30
2023-10-21T16:00:04.036Z,7.95
2023-10-21T16:02:41.968Z,7.32
2023-10-21T16:05:15.197Z,6.83
2023-10-21T16:10:25.968Z,7.46
2023-10-21T16:13:01.700Z,6.40
2023-10-21T16:15:37.262Z,7.10
2023-10-21T16:18:10.767Z,8.61
2023-10-21T16:20:44.022Z,8.68
2023-10-21T16:23:17.235Z,8.34
2023-10-21T16:25:51.779Z,8.19
2023-10-21T16:28:24.937Z,7.83
2023-10-21T16:31:00.467Z,7.67
2023-10-21T16:33:34.983Z,7.00
2023-10-21T16:36:08.973Z,8.56
2023-10-21T16:38:42.122Z,7.91
2023-10-21T16:41:16.680Z,7.68
2023-10-21T16:43:52.364Z,6.64
2023-10-21T16:46:26.851Z,7.31
2023-10-21T16:49:00.096Z,7.43
2023-10-21T16:51:33.297Z,7.80
2023-10-21T16:54:06.660Z,8.13
2023-10-21T16:56:41.669Z,7.31
2023-10-21T16:59:14.825Z,7.61
2023-10-21T17:01:48.068Z,6.98
2023-10-21T17:04:21.273Z,7.64
2023-10-21T17:06:57.282Z,7.90
2023-10-21T17:09:30.527Z,6.56
2023-10-21T17:12:05.744Z,7.04
2023-10-21T17:14:38.941Z,7.18
2023-10-21T17:17:12.257Z,7.87
2023-10-21T17:19:45.435Z,9.04
2023-10-21T17:22:18.586Z,9.77
2023-10-21T17:24:51.760Z,8.64
2023-10-21T17:27:26.466Z,9.98
2023-10-21T17:29:59.748Z,9.14
2023-10-21T17:32:33.244Z,8.64
2023-10-21T17:35:07.088Z,8.88
2023-10-21T17:37:40.242Z,9.72
2023-10-21T17:40:14.104Z,9.11
2023-10-21T17:42:48.706Z,8.68
2023-10-21T17:45:21.885Z,7.19
2023-10-21T17:47:56.384Z,8.09
2023-10-21T17:50:29.674Z,8.09
2023-10-21T17:53:02.862Z,6.99
2023-10-21T17:55:36.017Z,7.41
2023-10-21T17:58:10.682Z,7.50
2023-10-21T18:00:43.998Z,7.52
2023-10-21T18:03:17.373Z,8.12
2023-10-21T18:05:50.662Z,7.73
2023-10-21T18:08:24.656Z,9.07
2023-10-21T18:10:57.813Z,9.17
2023-10-21T18:13:32.314Z,9.96
2023-10-21T18:16:05.925Z,8.95
2023-10-21T18:18:39.195Z,8.78
2023-10-21T18:21:12.510Z,8.64
2023-10-21T18:23:46.124Z,8.76
2023-10-21T18:26:19.317Z,8.17
2023-10-21T18:28:55.354Z,7.82
2023-10-21T18:31:28.719Z,6.65
2023-10-21T18:34:04.819Z,7.06
2023-10-21T18:36:38.003Z,7.25
2023-10-21T18:39:11.957Z,7.92
2023-10-21T18:41:45.168Z,7.35
2023-10-21T18:44:19.760Z,8.01
2023-10-21T18:46:52.969Z,7.70
2023-10-21T18:49:26.239Z,6.21
2023-10-21T18:51:59.385Z,7.26
2023-10-21T18:54:33.176Z,6.95
2023-10-21T18:57:06.593Z,6.45
2023-10-21T18:59:41.653Z,7.72
2023-10-21T19:02:17.125Z,7.13
2023-10-21T19:04:50.640Z,6.40
2023-10-21T19:07:23.824Z,5.59
2023-10-21T19:10:00.436Z,6.24
2023-10-21T19:12:34.108Z,6.52
2023-10-21T19:15:09.477Z,6.32
2023-10-21T19:17:42.855Z,6.68
2023-10-21T19:20:16.516Z,5.67
2023-10-21T19:22:51.922Z,6.19
2023-10-21T19:25:25.152Z,5.95
2023-10-21T19:27:58.426Z,5.72
2023-10-21T19:30:33.101Z,6.55
2023-10-21T19:33:06.323Z,5.64
2023-10-21T19:35:39.515Z,6.33
2023-10-21T19:38:12.650Z,6.89
2023-10-21T19:40:45.788Z,6.58
2023-10-21T19:43:19.022Z,5.35
2023-10-21T19:45:53.536Z,5.92
2023-10-21T19:48:26.768Z,6.60
2023-10-21T19:50:59.939Z,5.91
2023-10-21T19:53:33.665Z,6.43
2023-10-21T19:56:07.312Z,6.09
2023-10-21T19:58:40.490Z,5.89
2023-10-21T20:01:15.224Z,5.63
2023-10-21T20:03:48.618Z,6.51
2023-10-21T20:06:21.957Z,6.55
2023-10-21T20:08:55.212Z,6.64
2023-10-21T20:11:28.441Z,7.59
2023-10-21T20:14:03.846Z,6.28
2023-10-21T20:16:38.438Z,6.94
2023-10-21T20:19:11.604Z,5.39
2023-10-21T20:21:44.888Z,6.60
2023-10-21T20:24:18.057Z,6.90
2023-10-21T20:26:51.681Z,6.25
2023-10-21T20:29:24.842Z,5.96
2023-10-21T20:31:59.354Z,7.28
2023-10-21T20:34:32.786Z,7.28
2023-10-21T20:37:06.919Z,6.83
2023-10-21T20:39:40.210Z,6.19
2023-10-21T20:42:13.436Z,6.29
2023-10-21T20:44:48.504Z,5.81
2023-10-21T20:47:23.117Z,8.13
2023-10-21T20:49:56.293Z,5.87
2023-10-21T20:52:29.455Z,6.56
2023-10-21T20:55:02.556Z,5.89
2023-10-21T20:57:35.746Z,7.38
2023-10-21T21:00:12.497Z,7.02
2023-10-21T21:02:49.486Z,6.50
2023-10-21T21:05:22.628Z,5.73
2023-10-21T21:07:56.037Z,5.55
2023-10-21T21:10:29.977Z,5.69
2023-10-21T21:13:03.224Z,7.98
2023-10-21T21:15:36.649Z,6.59
2023-10-21T21:18:11.232Z,5.59
2023-10-21T21:20:44.439Z,6.18
2023-10-21T21:23:17.665Z,6.28
2023-10-21T21:25:50.759Z,5.74
2023-10-21T21:28:24.213Z,7.11
2023-10-21T21:30:57.791Z,6.72
2023-10-21T21:33:32.323Z,5.54
2023-10-21T21:36:07.606Z,5.53
2023-10-21T21:38:40.855Z,6.08
2023-10-21T21:41:16.767Z,6.30
2023-10-21T21:43:49.958Z,7.22
2023-10-21T21:46:23.274Z,6.43
2023-10-21T21:48:57.853Z,6.34
2023-10-21T21:51:31.041Z,5.27
2023-10-21T21:54:04.307Z,5.38
2023-10-21T21:56:40.281Z,5.27
2023-10-21T21:59:13.606Z,5.38
2023-10-21T22:01:48.747Z,4.93
2023-10-21T22:04:23.571Z,6.01
2023-10-21T22:06:59.120Z,6.11
2023-10-21T22:09:34.159Z,5.25
2023-10-21T22:12:08.073Z,4.91
2023-10-21T22:14:41.313Z,5.12
2023-10-21T22:17:15.375Z,5.21
2023-10-21T22:19:49.966Z,4.80
2023-10-21T22:22:26.522Z,5.27
2023-10-21T22:24:59.695Z,3.97
2023-10-21T22:27:32.883Z,4.07
2023-10-21T22:30:07.735Z,5.24
2023-10-21T22:32:41.032Z,4.78
2023-10-21T22:35:16.296Z,4.19
2023-10-21T22:37:49.490Z,4.67
2023-10-21T22:40:23.280Z,4.23
2023-10-21T22:42:56.797Z,4.41
2023-10-21T22:45:31.526Z,4.84
2023-10-21T22:48:06.247Z,5.54
2023-10-21T22:50:40.951Z,4.57
2023-10-21T22:53:14.263Z,4.85
2023-10-21T22:55:48.093Z,3.76
2023-10-21T22:58:21.264Z,4.95
2023-10-21T23:00:54.532Z,5.31
2023-10-21T23:03:27.744Z,4.96
2023-10-21T23:06:04.082Z,4.74
2023-10-21T23:08:39.966Z,7.17
2023-10-21T23:11:13.416Z,5.83
2023-10-21T23:13:49.596Z,7.10
2023-10-21T23:16:22.937Z,7.97
2023-10-21T23:18:56.277Z,7.93
2023-10-21T23:21:30.857Z,7.54
2023-10-21T23:24:04.147Z,5.26
2023-10-21T23:26:37.436Z,6.35
2023-10-21T23:29:13.935Z,5.54
2023-10-21T23:31:47.108Z,4.79
2023-10-21T23:34:20.329Z,6.26
2023-10-21T23:36:55.143Z,4.78
2023-10-21T23:39:28.410Z,4.83
2023-10-21T23:42:01.601Z,5.55
2023-10-21T23:44:35.024Z,5.08
2023-10-21T23:47:08.555Z,5.10
2023-10-21T23:49:42.119Z,4.56
2023-10-21T23:52:17.431Z,4.87
2023-10-21T23:54:51.057Z,4.77
2023-10-21T23:57:24.427Z,5.01
2023-10-21T23:59:57.678Z,5.88
